createdAt,value
2019-01-19T00:02:53.530Z,99960.11
2019-01-19T00:06:07.602Z,99960.11
2019-01-19T00:09:11.197Z,99965.16
2019-01-19T00:12:43.388Z,99954.34
2019-01-19T00:16:00.546Z,99956.17
2019-01-19T00:18:54.999Z,99956.80
2019-01-19T00:21:44.381Z,99956.80
2019-01-19T00:24:36.417Z,99959.00
2019-01-19T00:27:50.045Z,99959.00
2019-01-19T00:31:00.738Z,99963.98
2019-01-19T00:33:42.348Z,99964.66
2019-01-19T00:36:52.593Z,99963.05
2019-01-19T00:39:52.108Z,99950.13
2019-01-19T00:42:37.695Z,99973.19
2019-01-19T00:45:35.260Z,99974.56
2019-01-19T00:48:19.959Z,99967.25
2019-01-19T00:51:42.798Z,99967.25
2019-01-19T00:54:24.219Z,99966.53
2019-01-19T00:57:07.240Z,99966.53
2019-01-19T00:59:42.066Z,99964.30
2019-01-19T01:02:41.254Z,99969.06
2019-01-19T01:05:25.354Z,99977.20
2019-01-19T01:08:36.325Z,99966.80
2019-01-19T01:11:24.889Z,99979.78
2019-01-19T01:14:40.416Z,99982.45
2019-01-19T01:17:39.178Z,99978.20
2019-01-19T01:21:02.076Z,99974.61
2019-01-19T01:23:58.054Z,99974.34
2019-01-19T01:27:08.984Z,99971.84
2019-01-19T01:30:05.487Z,99967.42
2019-01-19T01:33:28.394Z,99961.14
2019-01-19T01:36:48.421Z,99956.74
2019-01-19T01:39:41.440Z,99973.77
2019-01-19T01:42:38.365Z,99967.11
2019-01-19T01:45:17.454Z,99968.83
2019-01-19T01:48:28.420Z,99968.83
2019-01-19T01:51:26.860Z,99966.14
2019-01-19T01:54:45.753Z,99966.14
2019-01-19T01:57:24.494Z,99962.82
2019-01-19T02:00:24.196Z,99962.60
2019-01-19T02:03:29.449Z,99954.70
2019-01-19T02:06:38.031Z,99954.70
2019-01-19T02:09:45.558Z,99948.78
2019-01-19T02:13:02.154Z,99958.29
2019-01-19T02:16:24.836Z,99958.29
2019-01-19T02:19:26.682Z,99947.75
2019-01-19T02:22:32.307Z,99948.66
2019-01-19T02:25:34.457Z,99948.66
2019-01-19T02:28:38.686Z,99930.77
2019-01-19T02:31:47.620Z,99938.31
2019-01-19T02:34:55.376Z,99938.49
2019-01-19T02:38:12.780Z,99950.55
2019-01-19T02:41:17.719Z,99940.56
2019-01-19T02:44:16.483Z,99942.32
2019-01-19T02:47:31.151Z,99934.97
2019-01-19T02:50:54.414Z,99934.97
2019-01-19T02:54:13.504Z,99934.53
2019-01-19T02:57:27.498Z,99929.43
2019-01-19T03:00:47.236Z,99949.61
2019-01-19T03:03:44.544Z,99949.61
2019-01-19T03:06:38.238Z,99947.77
2019-01-19T03:09:47.141Z,99947.77
2019-01-19T03:13:08.898Z,99949.23
2019-01-19T03:15:54.171Z,99950.30
2019-01-19T03:18:48.107Z,99941.27
2019-01-19T03:21:38.162Z,99950.30
2019-01-19T03:24:45.849Z,99950.30
2019-01-19T03:27:43.551Z,99952.34
2019-01-19T03:30:54.655Z,99957.70
2019-01-19T03:33:59.836Z,99957.70
2019-01-19T03:37:01.534Z,99947.87
2019-01-19T03:40:11.271Z,99969.77
2019-01-19T03:43:31.154Z,99970.25
2019-01-19T03:46:14.387Z,99971.30
2019-01-19T03:49:21.480Z,99835.28
2019-01-19T03:52:29.426Z,99962.64
2019-01-19T03:55:41.144Z,99965.31
2019-01-19T03:58:48.381Z,99965.31
2019-01-19T04:01:40.312Z,99964.48
2019-01-19T04:04:53.266Z,99955.17
2019-01-19T04:08:03.205Z,99967.98
2019-01-19T04:11:14.195Z,99966.67
2019-01-19T04:14:28.290Z,99964.00
2019-01-19T04:17:17.932Z,99968.98
2019-01-19T04:20:50.299Z,99968.98
2019-01-19T04:23:20.631Z,99973.00
2019-01-19T04:26:00.980Z,99975.67
2019-01-19T04:28:31.530Z,99971.34
2019-01-19T04:31:01.947Z,99978.56
2019-01-19T04:33:32.282Z,99973.05
2019-01-19T04:36:02.698Z,99962.69
2019-01-19T04:38:34.618Z,99971.88
2019-01-19T04:41:05.095Z,99971.71
2019-01-19T04:43:35.395Z,99975.38
2019-01-19T04:46:05.783Z,99975.38
2019-01-19T04:48:36.626Z,99978.73
2019-01-19T04:51:07.048Z,99982.89
2019-01-19T04:53:37.415Z,99888.13
2019-01-19T04:56:07.995Z,99982.89
2019-01-19T04:58:38.410Z,99990.44
2019-01-19T05:01:08.730Z,99990.44
2019-01-19T05:03:39.073Z,99992.08
2019-01-19T05:06:12.533Z,99986.73
2019-01-19T05:08:41.401Z,99998.94
2019-01-19T05:11:11.742Z,100002.13
2019-01-19T05:13:42.079Z,100001.47
2019-01-19T05:16:12.457Z,100001.47
2019-01-19T05:18:42.773Z,100008.01
2019-01-19T05:21:13.606Z,100014.86
2019-01-19T05:23:43.956Z,100023.52
2019-01-19T05:26:14.404Z,100037.55
2019-01-19T05:28:44.726Z,100029.56
2019-01-19T05:31:15.114Z,100034.88
2019-01-19T05:33:45.530Z,100041.72
2019-01-19T05:36:15.912Z,100050.75
2019-01-19T05:38:46.286Z,100050.75
2019-01-19T05:41:16.668Z,100051.04
2019-01-19T05:43:47.053Z,100051.04
2019-01-19T05:46:21.508Z,100056.54
2019-01-19T05:48:49.446Z,100049.85
2019-01-19T05:51:19.793Z,100048.98
2019-01-19T05:53:50.208Z,100048.98
2019-01-19T05:56:20.547Z,100045.80
2019-01-19T05:58:50.969Z,100054.83
2019-01-19T06:01:22.124Z,100047.75
2019-01-19T06:03:52.470Z,100052.39
2019-01-19T06:06:23.131Z,100053.39
2019-01-19T06:08:53.432Z,100055.48
2019-01-19T06:11:23.740Z,100055.48
2019-01-19T06:13:54.078Z,100054.63
2019-01-19T06:16:24.436Z,100054.43
2019-01-19T06:18:55.105Z,100070.73
2019-01-19T06:21:29.381Z,100070.73
2019-01-19T06:23:59.805Z,100067.53
2019-01-19T06:26:30.183Z,100061.30
2019-01-19T06:29:00.524Z,100061.30
2019-01-19T06:31:30.912Z,100071.80
2019-01-19T06:34:01.323Z,100071.80
2019-01-19T06:36:31.668Z,100080.09
2019-01-19T06:39:02.100Z,100074.28
2019-01-19T06:41:32.477Z,100080.06
2019-01-19T06:44:02.860Z,100088.72
2019-01-19T06:46:33.173Z,100088.30
2019-01-19T06:49:03.552Z,100080.44
2019-01-19T06:51:33.894Z,100086.89
2019-01-19T06:54:04.572Z,100088.20
2019-01-19T06:56:34.950Z,100090.37
2019-01-19T06:59:05.435Z,100092.53
2019-01-19T07:01:35.821Z,100086.34
2019-01-19T07:04:06.314Z,100086.67
2019-01-19T07:06:36.663Z,100089.93
2019-01-19T07:09:08.721Z,100091.95
2019-01-19T07:11:39.280Z,100097.42
2019-01-19T07:14:09.591Z,100095.91
2019-01-19T07:16:40.027Z,100100.02
2019-01-19T07:19:10.348Z,100094.91
2019-01-19T07:21:40.718Z,100098.50
2019-01-19T07:24:11.086Z,100090.05
2019-01-19T07:26:41.444Z,100093.12
2019-01-19T07:29:11.848Z,100100.66
2019-01-19T07:31:42.228Z,100106.97
2019-01-19T07:34:12.626Z,99977.87
2019-01-19T07:36:43.062Z,100110.09
2019-01-19T07:39:13.451Z,100120.58
2019-01-19T07:41:43.828Z,100121.94
2019-01-19T07:44:14.133Z,100125.55
2019-01-19T07:46:44.710Z,100124.56
2019-01-19T07:49:15.046Z,100121.37
2019-01-19T07:51:45.401Z,100126.04
2019-01-19T07:54:15.736Z,100126.04
2019-01-19T07:56:46.147Z,100132.88
2019-01-19T07:59:16.500Z,100132.37
2019-01-19T08:01:46.872Z,100150.81
2019-01-19T08:04:17.223Z,100155.09
2019-01-19T08:06:47.555Z,100155.09
2019-01-19T08:09:17.908Z,100153.81
2019-01-19T08:11:48.221Z,100165.05
2019-01-19T08:14:18.736Z,100168.59
2019-01-19T08:16:49.070Z,100170.17
2019-01-19T08:19:19.417Z,100169.92
2019-01-19T08:21:49.759Z,100164.77
2019-01-19T08:24:20.188Z,100176.56
2019-01-19T08:26:50.629Z,100183.02
2019-01-19T08:29:20.957Z,100181.20
2019-01-19T08:31:51.293Z,100186.50
2019-01-19T08:34:21.709Z,100193.56
2019-01-19T08:36:52.159Z,100194.42
2019-01-19T08:39:22.653Z,100202.44
2019-01-19T08:41:53.032Z,100209.38
2019-01-19T08:44:23.424Z,100203.63
2019-01-19T08:46:53.841Z,100212.88
2019-01-19T08:49:24.196Z,100212.14
2019-01-19T08:51:54.518Z,100213.58
2019-01-19T08:54:24.983Z,100215.59
2019-01-19T08:56:55.394Z,100221.67
2019-01-19T08:59:25.733Z,100225.57
2019-01-19T09:01:56.128Z,100219.41
2019-01-19T09:04:26.512Z,100216.45
2019-01-19T09:06:56.928Z,100215.72
2019-01-19T09:09:27.398Z,100221.87
2019-01-19T09:11:57.768Z,100219.72
2019-01-19T09:14:28.172Z,100217.38
2019-01-19T09:16:58.554Z,100222.16
2019-01-19T09:19:28.935Z,100219.38
2019-01-19T09:21:59.312Z,100218.61
2019-01-19T09:24:30.612Z,100227.53
2019-01-19T09:27:01.050Z,100224.74
2019-01-19T09:29:31.375Z,100217.20
2019-01-19T09:32:01.752Z,100221.88
2019-01-19T09:34:34.016Z,100225.83
2019-01-19T09:37:04.121Z,100219.70
2019-01-19T09:39:34.461Z,100214.31
2019-01-19T09:42:04.868Z,100205.88
2019-01-19T09:44:35.268Z,100205.25
2019-01-19T09:47:05.691Z,100204.44
2019-01-19T09:49:36.305Z,100197.14
2019-01-19T09:52:06.773Z,100188.59
2019-01-19T09:54:37.156Z,100179.19
2019-01-19T09:57:07.664Z,100180.10
2019-01-19T09:59:38.019Z,100174.84
2019-01-19T10:02:08.359Z,100182.38
2019-01-19T10:04:38.662Z,100183.65
2019-01-19T10:07:09.044Z,100176.94
2019-01-19T10:09:39.424Z,100171.90
2019-01-19T10:12:09.833Z,100170.38
2019-01-19T10:14:40.243Z,100168.03
2019-01-19T10:17:10.664Z,100157.48
2019-01-19T10:19:41.007Z,100159.79
2019-01-19T10:22:11.375Z,100161.38
2019-01-19T10:24:41.734Z,100159.78
2019-01-19T10:27:12.036Z,100155.16
2019-01-19T10:29:42.650Z,100051.56
2019-01-19T10:32:13.091Z,100143.75
2019-01-19T10:34:43.435Z,100151.59
2019-01-19T10:37:13.772Z,100044.08
2019-01-19T10:39:44.137Z,100148.11
2019-01-19T10:42:14.443Z,100145.52
2019-01-19T10:44:44.787Z,100146.78
2019-01-19T10:47:15.200Z,100151.80
2019-01-19T10:49:45.586Z,100156.16
2019-01-19T10:52:15.931Z,100159.41
2019-01-19T10:54:46.313Z,100146.78
2019-01-19T10:57:16.733Z,100142.05
2019-01-19T10:59:47.080Z,100132.05
2019-01-19T11:02:17.504Z,100133.44
2019-01-19T11:04:47.836Z,100127.88
2019-01-19T11:07:18.178Z,100131.38
2019-01-19T11:09:48.533Z,100138.58
2019-01-19T11:12:18.870Z,100133.34
2019-01-19T11:14:49.285Z,100137.41
2019-01-19T11:17:19.620Z,100024.82
2019-01-19T11:19:50.033Z,100128.85
2019-01-19T11:22:20.529Z,100116.66
2019-01-19T11:24:50.927Z,100110.91
2019-01-19T11:27:21.270Z,100111.75
2019-01-19T11:29:51.613Z,100102.62
2019-01-19T11:32:21.960Z,100104.98
2019-01-19T11:34:52.267Z,100109.34
2019-01-19T11:37:22.730Z,100101.04
2019-01-19T11:39:53.073Z,100100.12
2019-01-19T11:42:23.414Z,100097.23
2019-01-19T11:44:53.837Z,100095.45
2019-01-19T11:47:24.228Z,100091.80
2019-01-19T11:49:54.565Z,100094.20
2019-01-19T11:52:24.988Z,100094.26
2019-01-19T11:54:55.608Z,100099.94
2019-01-19T11:57:25.999Z,100089.50
2019-01-19T11:59:56.421Z,100090.98
2019-01-19T12:02:27.758Z,100090.56
2019-01-19T12:04:58.177Z,99972.06
2019-01-19T12:07:28.560Z,100093.38
2019-01-19T12:09:58.904Z,100083.95
2019-01-19T12:12:29.245Z,100076.19
2019-01-19T12:14:59.605Z,100081.84
2019-01-19T12:17:29.984Z,100088.93
2019-01-19T12:20:00.403Z,100089.16
2019-01-19T12:22:30.773Z,100082.53
2019-01-19T12:25:01.177Z,100078.78
2019-01-19T12:27:31.574Z,100079.22
2019-01-19T12:30:01.922Z,100077.32
2019-01-19T12:32:32.274Z,100071.48
2019-01-19T12:35:02.576Z,100074.34
2019-01-19T12:37:32.926Z,100076.13
2019-01-19T12:40:03.655Z,100080.98
2019-01-19T12:42:34.002Z,100080.57
2019-01-19T12:45:05.004Z,100084.70
2019-01-19T12:47:35.378Z,99971.84
2019-01-19T12:50:11.662Z,100090.55
2019-01-19T12:52:43.505Z,100084.20
2019-01-19T12:55:14.029Z,100088.12
2019-01-19T12:57:44.631Z,100085.78
2019-01-19T13:00:18.005Z,100088.55
2019-01-19T13:02:48.497Z,100090.83
2019-01-19T13:05:25.702Z,100095.27
2019-01-19T13:07:56.088Z,100099.13
2019-01-19T13:10:33.238Z,100097.01
2019-01-19T13:13:15.425Z,100102.14
2019-01-19T13:16:30.775Z,100099.75
2019-01-19T13:19:30.138Z,100104.06
2019-01-19T13:22:51.077Z,100108.80
2019-01-19T13:26:05.965Z,100108.05
2019-01-19T13:29:27.536Z,100113.94
2019-01-19T13:32:40.464Z,100114.01
2019-01-19T13:36:12.212Z,100110.83
2019-01-19T13:39:16.835Z,100112.44
2019-01-19T13:42:23.527Z,100116.05
2019-01-19T13:45:37.551Z,100120.62
2019-01-19T13:48:29.654Z,100128.91
2019-01-19T13:51:20.906Z,100120.03
2019-01-19T13:54:49.900Z,100118.00
2019-01-19T13:57:59.365Z,100115.37
2019-01-19T14:01:10.508Z,100121.30
2019-01-19T14:04:08.699Z,100115.88
2019-01-19T14:07:02.307Z,100119.80
2019-01-19T14:09:53.700Z,100128.07
2019-01-19T14:13:08.060Z,100120.09
2019-01-19T14:15:58.773Z,100118.55
2019-01-19T14:18:59.995Z,100114.03
2019-01-19T14:22:07.778Z,100120.65
2019-01-19T14:25:23.628Z,100117.16
2019-01-19T14:28:08.651Z,100121.67
2019-01-19T14:31:11.516Z,100120.85
2019-01-19T14:34:07.540Z,100127.09
2019-01-19T14:37:09.017Z,100121.81
2019-01-19T14:40:11.172Z,100120.27
2019-01-19T14:43:06.834Z,100121.52
2019-01-19T14:46:17.877Z,100120.91
2019-01-19T14:49:24.656Z,100124.00
2019-01-19T14:52:03.574Z,100117.66
2019-01-19T14:55:15.585Z,100126.97
2019-01-19T14:58:16.178Z,100128.13
2019-01-19T15:01:11.402Z,100128.11
2019-01-19T15:04:02.036Z,100130.38
2019-01-19T15:07:28.196Z,100124.48
2019-01-19T15:10:39.393Z,100130.97
2019-01-19T15:13:42.042Z,100128.84
2019-01-19T15:16:48.841Z,100127.20
2019-01-19T15:20:21.150Z,100125.39
2019-01-19T15:23:26.506Z,100126.58
2019-01-19T15:26:51.438Z,100127.78
2019-01-19T15:30:00.450Z,100135.06
2019-01-19T15:33:02.037Z,100129.80
2019-01-19T15:36:33.965Z,100139.08
2019-01-19T15:39:40.206Z,100135.78
2019-01-19T15:42:58.258Z,100146.08
2019-01-19T15:45:51.774Z,100148.55
2019-01-19T15:49:23.620Z,100155.13
2019-01-19T15:52:33.669Z,100155.65
2019-01-19T15:55:39.923Z,100161.36
2019-01-19T15:58:59.649Z,100157.70
2019-01-19T16:02:06.692Z,100162.48
2019-01-19T16:04:50.142Z,100162.28
2019-01-19T16:07:51.740Z,100162.08
2019-01-19T16:10:59.923Z,100038.16
2019-01-19T16:14:05.221Z,100163.00
2019-01-19T16:17:01.079Z,100165.20
2019-01-19T16:20:16.538Z,100168.63
2019-01-19T16:23:07.129Z,100158.11
2019-01-19T16:26:08.038Z,100165.61
2019-01-19T16:29:14.421Z,100166.11
2019-01-19T16:32:16.671Z,100173.28
2019-01-19T16:35:13.947Z,100178.24
2019-01-19T16:38:05.749Z,100177.23
2019-01-19T16:41:09.421Z,100176.80
2019-01-19T16:44:19.064Z,100189.91
2019-01-19T16:47:31.472Z,100194.97
2019-01-19T16:50:48.821Z,100196.95
2019-01-19T16:53:31.783Z,100200.08
2019-01-19T16:56:35.372Z,100199.56
2019-01-19T16:59:35.931Z,100209.22
2019-01-19T17:02:44.676Z,100208.39
2019-01-19T17:05:23.811Z,100220.02
2019-01-19T17:08:26.918Z,100225.62
2019-01-19T17:11:32.722Z,100224.37
2019-01-19T17:14:43.977Z,100227.08
2019-01-19T17:17:45.063Z,100225.10
2019-01-19T17:20:55.517Z,100223.13
2019-01-19T17:23:54.056Z,100232.28
2019-01-19T17:27:11.166Z,100237.34
2019-01-19T17:30:03.052Z,100242.45
2019-01-19T17:33:08.629Z,100242.75
2019-01-19T17:36:03.495Z,100242.52
2019-01-19T17:38:57.846Z,100242.28
2019-01-19T17:42:07.461Z,100243.00
2019-01-19T17:44:48.907Z,100240.01
2019-01-19T17:48:00.253Z,100249.27
2019-01-19T17:50:49.181Z,100253.80
2019-01-19T17:54:00.934Z,100247.37
2019-01-19T17:56:46.428Z,100247.48
2019-01-19T17:59:42.703Z,100244.06
2019-01-19T18:02:57.045Z,100249.55
2019-01-19T18:06:07.022Z,100247.25
2019-01-19T18:09:16.413Z,100250.90
2019-01-19T18:12:17.661Z,100246.84
2019-01-19T18:15:22.410Z,100249.92
2019-01-19T18:18:29.254Z,100251.38
2019-01-19T18:21:17.270Z,100254.70
2019-01-19T18:24:36.348Z,100244.44
2019-01-19T18:27:50.045Z,100247.22
2019-01-19T18:30:37.526Z,100257.69
2019-01-19T18:33:32.382Z,100254.98
2019-01-19T18:36:27.234Z,100257.69
2019-01-19T18:39:43.346Z,100256.76
2019-01-19T18:42:51.582Z,100257.58
2019-01-19T18:46:04.092Z,100260.61
2019-01-19T18:49:23.169Z,100267.00
2019-01-19T18:52:34.590Z,100260.05
2019-01-19T18:55:26.159Z,100262.52
2019-01-19T18:58:49.371Z,100265.12
2019-01-19T19:02:02.749Z,100269.44
2019-01-19T19:04:56.103Z,100272.58
2019-01-19T19:07:59.953Z,100282.73
2019-01-19T19:11:03.118Z,100279.48
2019-01-19T19:13:55.948Z,100277.42
2019-01-19T19:17:05.393Z,100281.70
2019-01-19T19:20:02.488Z,100287.39
2019-01-19T19:23:16.680Z,100289.34
2019-01-19T19:26:36.920Z,100295.56
2019-01-19T19:29:33.531Z,100295.92
2019-01-19T19:32:51.659Z,100292.10
2019-01-19T19:35:59.683Z,100297.91
2019-01-19T19:38:52.611Z,100299.72
2019-01-19T19:42:08.343Z,100295.64
2019-01-19T19:44:53.260Z,100299.50
2019-01-19T19:48:06.861Z,100167.70
2019-01-19T19:51:05.298Z,100307.17
2019-01-19T19:53:35.808Z,100298.88
2019-01-19T19:56:04.222Z,100298.16
2019-01-19T19:58:34.526Z,100300.33
2019-01-19T20:01:05.000Z,100308.30
2019-01-19T20:03:35.304Z,100309.80
2019-01-19T20:06:05.701Z,100314.84
2019-01-19T20:08:36.143Z,100312.41
2019-01-19T20:11:06.595Z,100316.05
2019-01-19T20:13:37.012Z,100319.59
2019-01-19T20:16:07.436Z,100321.36
2019-01-19T20:18:37.841Z,100310.73
2019-01-19T20:21:08.259Z,100311.03
2019-01-19T20:23:38.633Z,100319.95
2019-01-19T20:26:08.968Z,100323.69
2019-01-19T20:28:39.323Z,100317.25
2019-01-19T20:31:09.686Z,100316.16
2019-01-19T20:33:40.026Z,100306.39
2019-01-19T20:36:10.365Z,100306.80
2019-01-19T20:38:40.740Z,100309.88
2019-01-19T20:41:11.183Z,100311.85
2019-01-19T20:43:41.496Z,100318.28
2019-01-19T20:46:11.796Z,100315.47
2019-01-19T20:48:42.351Z,100318.68
2019-01-19T20:51:13.325Z,100318.28
2019-01-19T20:53:43.820Z,100315.80
2019-01-19T20:56:14.164Z,100314.45
2019-01-19T20:58:44.542Z,100309.38
2019-01-19T21:01:14.889Z,100312.02
2019-01-19T21:03:45.237Z,100311.97
2019-01-19T21:06:15.585Z,100306.95
2019-01-19T21:08:45.951Z,100307.36
2019-01-19T21:11:16.367Z,100307.74
2019-01-19T21:13:46.708Z,100312.27
2019-01-19T21:16:17.089Z,100304.97
2019-01-19T21:18:47.506Z,100305.37
2019-01-19T21:21:17.882Z,100310.17
2019-01-19T21:23:48.246Z,100294.80
2019-01-19T21:26:18.668Z,100297.05
2019-01-19T21:28:49.005Z,100301.92
2019-01-19T21:31:19.348Z,100302.34
2019-01-19T21:33:49.695Z,100301.08
2019-01-19T21:36:20.005Z,100298.88
2019-01-19T21:38:50.360Z,100300.10
2019-01-19T21:41:20.670Z,100306.20
2019-01-19T21:43:54.569Z,100301.01
2019-01-19T21:46:28.761Z,100303.91
2019-01-19T21:48:59.169Z,100311.52
2019-01-19T21:51:29.625Z,100305.84
2019-01-19T21:53:59.999Z,100301.09
2019-01-19T21:56:30.365Z,100305.19
2019-01-19T21:59:00.751Z,100308.06
2019-01-19T22:01:31.051Z,100311.13
2019-01-19T22:04:01.422Z,100309.71
2019-01-19T22:06:31.795Z,100300.67
2019-01-19T22:09:02.278Z,100304.34
2019-01-19T22:11:32.714Z,100302.47
2019-01-19T22:14:03.191Z,100303.42
2019-01-19T22:16:33.633Z,100299.45
2019-01-19T22:19:04.119Z,100293.50
2019-01-19T22:21:34.648Z,100293.69
2019-01-19T22:24:05.145Z,100292.45
2019-01-19T22:26:36.247Z,100294.89
2019-01-19T22:29:06.748Z,100286.74
2019-01-19T22:31:37.189Z,100155.82
2019-01-19T22:34:07.666Z,100281.66
2019-01-19T22:36:38.210Z,100284.69
2019-01-19T22:39:09.193Z,100283.27
2019-01-19T22:41:39.636Z,100277.55
2019-01-19T22:44:10.087Z,100275.56
2019-01-19T22:46:40.573Z,100272.16
2019-01-19T22:49:11.175Z,100273.20
2019-01-19T22:51:41.670Z,100276.20
2019-01-19T22:54:12.169Z,100271.71
2019-01-19T22:56:42.636Z,100272.98
2019-01-19T22:59:13.116Z,100268.13
2019-01-19T23:01:50.327Z,100266.77
2019-01-19T23:04:20.804Z,100256.70
2019-01-19T23:06:51.247Z,100254.91
2019-01-19T23:09:21.682Z,100253.79
2019-01-19T23:11:52.091Z,100248.97
2019-01-19T23:14:22.586Z,100245.19
2019-01-19T23:16:52.986Z,100245.08
2019-01-19T23:19:23.461Z,100245.14
2019-01-19T23:21:53.864Z,100243.87
2019-01-19T23:24:24.262Z,100247.50
2019-01-19T23:26:59.679Z,100244.18
2019-01-19T23:29:30.075Z,100250.53
2019-01-19T23:32:00.497Z,100249.14
2019-01-19T23:34:30.952Z,100244.89
2019-01-19T23:37:01.436Z,100238.86
2019-01-19T23:39:31.856Z,100230.48
2019-01-19T23:42:02.284Z,100227.67
2019-01-19T23:44:32.740Z,100222.59
2019-01-19T23:47:03.163Z,100226.26
2019-01-19T23:49:33.618Z,100220.73
2019-01-19T23:52:04.185Z,100219.64
2019-01-19T23:54:34.616Z,100223.56
2019-01-19T23:57:05.187Z,100226.33
2019-01-19T23:59:35.652Z,100229.84
